createdAt,value
2018-08-13T00:00:13.190Z,68.47
2018-08-13T00:02:42.390Z,68.27
2018-08-13T00:05:11.491Z,69.44
2018-08-13T00:07:40.614Z,70.52
2018-08-13T00:10:10.995Z,70.66
2018-08-13T00:12:40.146Z,71.14
2018-08-13T00:15:09.250Z,72.11
2018-08-13T00:17:38.504Z,72.89
2018-08-13T00:20:08.770Z,72.39
2018-08-13T00:22:37.907Z,73.54
2018-08-13T00:25:07.050Z,73.21
2018-08-13T00:27:36.394Z,72.99
2018-08-13T00:30:05.983Z,73.83
2018-08-13T00:32:35.210Z,74.13
2018-08-13T00:35:04.699Z,74.86
2018-08-13T00:37:33.862Z,74.23
2018-08-13T00:40:03.065Z,74.35
2018-08-13T00:42:32.986Z,74.20
2018-08-13T00:45:02.486Z,73.61
2018-08-13T00:47:31.706Z,73.98
2018-08-13T00:50:00.919Z,72.96
2018-08-13T00:52:30.266Z,72.79
2018-08-13T00:54:59.667Z,73.18
2018-08-13T00:57:28.838Z,72.90
2018-08-13T00:59:58.481Z,72.76
2018-08-13T01:02:27.603Z,74.53
2018-08-13T01:04:56.806Z,74.76
2018-08-13T01:07:26.314Z,75.22
2018-08-13T01:09:55.449Z,75.47
2018-08-13T01:12:25.699Z,75.44
2018-08-13T01:14:55.229Z,76.16
2018-08-13T01:17:24.374Z,77.66
2018-08-13T01:19:53.497Z,78.23
2018-08-13T01:22:22.879Z,78.26
2018-08-13T01:24:52.325Z,78.90
2018-08-13T01:27:26.610Z,78.68
2018-08-13T01:29:55.740Z,78.55
2018-08-13T01:32:25.104Z,78.65
2018-08-13T01:34:54.218Z,79.37
2018-08-13T01:37:23.406Z,79.66
2018-08-13T01:39:52.593Z,79.43
2018-08-13T01:42:21.750Z,79.36
2018-08-13T01:44:50.917Z,79.49
2018-08-13T01:47:20.097Z,77.85
2018-08-13T01:49:49.298Z,77.79
2018-08-13T01:52:19.330Z,77.48
2018-08-13T01:54:48.455Z,78.03
2018-08-13T01:57:17.613Z,77.13
2018-08-13T01:59:46.822Z,76.32
2018-08-13T02:02:16.704Z,76.10
2018-08-13T02:04:49.175Z,76.89
2018-08-13T02:07:20.685Z,77.53
2018-08-13T02:09:50.597Z,77.83
2018-08-13T02:12:20.611Z,77.49
2018-08-13T02:14:50.644Z,77.53
2018-08-13T02:17:20.707Z,77.86
2018-08-13T02:19:51.690Z,78.78
2018-08-13T02:22:21.260Z,79.65
2018-08-13T02:24:50.421Z,79.85
2018-08-13T02:27:19.550Z,79.62
2018-08-13T02:29:49.029Z,78.85
2018-08-13T02:32:18.131Z,78.61
2018-08-13T02:34:46.973Z,78.25
2018-08-13T02:37:16.354Z,78.76
2018-08-13T02:39:45.458Z,77.71
2018-08-13T02:42:14.782Z,77.69
2018-08-13T02:44:44.110Z,76.98
2018-08-13T02:47:13.265Z,76.40
2018-08-13T02:49:42.389Z,76.22
2018-08-13T02:52:11.706Z,76.21
2018-08-13T02:54:40.903Z,78.06
2018-08-13T02:57:10.010Z,80.12
2018-08-13T02:59:39.155Z,79.60
2018-08-13T03:02:08.234Z,78.62
2018-08-13T03:04:37.377Z,77.63
2018-08-13T03:07:06.879Z,77.08
2018-08-13T03:09:36.006Z,77.76
2018-08-13T03:12:05.315Z,78.65
2018-08-13T03:14:34.475Z,78.77
2018-08-13T03:17:03.589Z,79.07
2018-08-13T03:19:32.704Z,79.20
2018-08-13T03:22:01.790Z,79.19
2018-08-13T03:24:31.713Z,79.46
2018-08-13T03:27:01.037Z,80.17
2018-08-13T03:29:30.217Z,80.07
2018-08-13T03:31:59.431Z,80.82
2018-08-13T03:34:28.723Z,81.74
2018-08-13T03:36:58.026Z,81.46
2018-08-13T03:39:27.854Z,82.10
2018-08-13T03:41:57.029Z,82.39
2018-08-13T03:44:26.106Z,82.63
2018-08-13T03:46:55.193Z,82.65
2018-08-13T03:49:24.281Z,82.15
2018-08-13T03:51:58.242Z,82.33
2018-08-13T03:54:27.349Z,82.45
2018-08-13T03:56:57.250Z,82.27
2018-08-13T03:59:26.346Z,81.76
2018-08-13T04:01:55.483Z,81.04
2018-08-13T04:04:24.606Z,81.41
2018-08-13T04:06:53.716Z,81.33
2018-08-13T04:09:22.901Z,81.14
2018-08-13T04:11:52.686Z,81.31
2018-08-13T04:14:22.257Z,79.94
2018-08-13T04:16:58.842Z,79.45
2018-08-13T04:19:27.969Z,79.04
2018-08-13T04:21:57.237Z,79.55
2018-08-13T04:24:26.457Z,80.44
2018-08-13T04:26:55.799Z,79.78
2018-08-13T04:29:25.738Z,79.24
2018-08-13T04:31:56.738Z,79.86
2018-08-13T04:34:25.861Z,79.17
2018-08-13T04:36:55.037Z,78.87
2018-08-13T04:39:24.218Z,78.23
2018-08-13T04:41:53.310Z,78.17
2018-08-13T04:44:22.414Z,78.70
2018-08-13T04:46:51.546Z,80.12
2018-08-13T04:49:21.169Z,80.08
2018-08-13T04:51:50.261Z,80.32
2018-08-13T04:54:19.358Z,78.82
2018-08-13T04:56:48.470Z,78.09
2018-08-13T04:59:17.702Z,75.01
2018-08-13T05:01:46.816Z,72.24
2018-08-13T05:04:15.910Z,70.41
2018-08-13T05:06:45.839Z,69.46
2018-08-13T05:09:14.938Z,68.27
2018-08-13T05:11:44.053Z,63.04
2018-08-13T05:14:13.149Z,61.87
2018-08-13T05:16:43.049Z,59.55
2018-08-13T05:19:12.506Z,56.86
2018-08-13T05:21:41.609Z,56.76
2018-08-13T05:24:11.493Z,57.19
2018-08-13T05:26:40.736Z,57.58
2018-08-13T05:29:10.687Z,56.92
2018-08-13T05:31:39.854Z,54.06
2018-08-13T05:34:09.215Z,53.81
2018-08-13T05:36:37.932Z,52.04
2018-08-13T05:39:11.349Z,50.69
2018-08-13T05:41:40.610Z,50.30
2018-08-13T05:44:11.302Z,48.31
2018-08-13T05:46:40.434Z,46.22
2018-08-13T05:49:11.986Z,44.49
2018-08-13T05:51:41.153Z,42.40
2018-08-13T05:54:10.365Z,41.93
2018-08-13T05:56:39.694Z,40.71
2018-08-13T05:59:09.269Z,42.32
2018-08-13T06:01:39.331Z,41.51
2018-08-13T06:04:08.550Z,40.85
2018-08-13T06:06:38.743Z,41.04
2018-08-13T06:09:11.185Z,42.42
2018-08-13T06:11:40.482Z,44.06
2018-08-13T06:14:11.921Z,44.49
2018-08-13T06:16:41.419Z,45.17
2018-08-13T06:19:10.525Z,46.04
2018-08-13T06:21:40.381Z,45.67
2018-08-13T06:24:09.661Z,45.33
2018-08-13T06:26:38.727Z,44.16
2018-08-13T06:29:07.949Z,42.41
2018-08-13T06:31:37.260Z,41.04
2018-08-13T06:34:11.106Z,39.72
2018-08-13T06:36:40.944Z,37.33
2018-08-13T06:39:11.273Z,35.12
2018-08-13T06:41:40.696Z,36.59
2018-08-13T06:44:09.853Z,36.05
2018-08-13T06:46:39.173Z,36.96
2018-08-13T06:49:09.527Z,35.33
2018-08-13T06:51:38.550Z,33.19
2018-08-13T06:54:07.678Z,31.15
2018-08-13T06:56:37.325Z,32.22
2018-08-13T06:59:11.112Z,29.15
2018-08-13T07:01:40.459Z,25.55
2018-08-13T07:04:10.363Z,28.08
2018-08-13T07:06:40.866Z,29.89
2018-08-13T07:09:11.321Z,32.02
2018-08-13T07:11:41.593Z,34.55
2018-08-13T07:14:10.718Z,37.07
2018-08-13T07:16:39.810Z,40.16
2018-08-13T07:19:09.450Z,41.68
2018-08-13T07:21:38.541Z,41.85
2018-08-13T07:24:07.874Z,42.42
2018-08-13T07:26:37.228Z,42.14
2018-08-13T07:29:06.678Z,42.61
2018-08-13T07:31:35.459Z,43.05
2018-08-13T07:34:05.329Z,43.38
2018-08-13T07:36:34.688Z,42.75
2018-08-13T07:39:03.950Z,43.04
2018-08-13T07:41:33.142Z,43.48
2018-08-13T07:44:02.486Z,43.31
2018-08-13T07:46:32.087Z,43.97
2018-08-13T07:49:01.173Z,43.82
2018-08-13T07:51:30.373Z,41.96
2018-08-13T07:53:59.926Z,42.30
2018-08-13T07:56:29.092Z,40.38
2018-08-13T07:58:58.698Z,38.14
2018-08-13T08:01:28.414Z,37.06
2018-08-13T08:03:57.563Z,35.85
2018-08-13T08:06:26.717Z,35.86
2018-08-13T08:08:55.800Z,34.02
2018-08-13T08:11:24.920Z,32.00
2018-08-13T08:13:54.040Z,32.02
2018-08-13T08:16:23.134Z,32.54
2018-08-13T08:18:52.783Z,35.24
2018-08-13T08:21:25.393Z,36.77
2018-08-13T08:23:54.513Z,39.99
2018-08-13T08:26:24.020Z,39.83
2018-08-13T08:28:53.759Z,41.40
2018-08-13T08:31:23.266Z,41.25
2018-08-13T08:33:52.545Z,43.09
2018-08-13T08:36:21.882Z,44.84
2018-08-13T08:38:51.698Z,43.89
2018-08-13T08:41:20.834Z,44.93
2018-08-13T08:43:50.010Z,46.29
2018-08-13T08:46:19.477Z,45.91
2018-08-13T08:48:48.593Z,47.18
2018-08-13T08:51:17.750Z,48.08
2018-08-13T08:53:46.893Z,47.28
2018-08-13T08:56:16.750Z,46.34
2018-08-13T08:58:45.885Z,46.44
2018-08-13T09:01:15.039Z,48.04
2018-08-13T09:03:44.154Z,47.91
2018-08-13T09:06:13.278Z,48.56
2018-08-13T09:08:42.407Z,50.05
2018-08-13T09:11:11.522Z,51.15
2018-08-13T09:13:40.674Z,53.63
2018-08-13T09:16:09.862Z,55.02
2018-08-13T09:18:56.401Z,55.55
2018-08-13T09:21:32.389Z,56.54
2018-08-13T09:24:19.879Z,59.12
2018-08-13T09:26:59.918Z,58.94
2018-08-13T09:29:45.958Z,58.13
2018-08-13T09:32:33.189Z,57.84
2018-08-13T09:35:10.502Z,58.56
2018-08-13T09:37:39.667Z,60.04
2018-08-13T09:40:09.683Z,58.47
2018-08-13T09:42:38.833Z,59.80
2018-08-13T09:45:09.148Z,64.87
2018-08-13T09:47:39.017Z,64.73
2018-08-13T09:50:12.649Z,63.26
2018-08-13T09:52:42.174Z,61.73
2018-08-13T09:55:11.512Z,59.78
2018-08-13T09:57:40.782Z,59.87
2018-08-13T10:00:16.840Z,60.14
2018-08-13T10:02:46.946Z,59.09
2018-08-13T10:05:16.626Z,58.57
2018-08-13T10:07:46.342Z,58.81
2018-08-13T10:10:16.581Z,57.75
2018-08-13T10:12:46.365Z,56.81
2018-08-13T10:15:16.113Z,54.96
2018-08-13T10:17:51.881Z,56.26
2018-08-13T10:20:22.097Z,58.59
2018-08-13T10:22:51.214Z,57.23
2018-08-13T10:25:20.425Z,55.77
2018-08-13T10:27:49.576Z,55.25
2018-08-13T10:30:19.489Z,54.40
2018-08-13T10:32:48.639Z,52.75
2018-08-13T10:35:16.904Z,50.85
2018-08-13T10:37:46.499Z,49.08
2018-08-13T10:40:18.263Z,48.70
2018-08-13T10:42:47.261Z,49.42
2018-08-13T10:45:16.742Z,50.47
2018-08-13T10:47:46.338Z,49.50
2018-08-13T10:50:15.697Z,51.25
2018-08-13T10:52:45.164Z,51.04
2018-08-13T10:55:15.547Z,50.26
2018-08-13T10:57:46.125Z,50.85
2018-08-13T11:00:16.498Z,52.16
2018-08-13T11:02:45.952Z,53.54
2018-08-13T11:05:15.598Z,54.76
2018-08-13T11:07:45.034Z,56.48
2018-08-13T11:10:16.265Z,58.13
2018-08-13T11:12:45.310Z,64.20
2018-08-13T11:15:19.053Z,66.78
2018-08-13T11:17:48.160Z,71.19
2018-08-13T11:20:17.595Z,69.47
2018-08-13T11:22:47.473Z,70.01
2018-08-13T11:25:17.367Z,67.71
2018-08-13T11:27:46.703Z,70.07
2018-08-13T11:30:17.298Z,68.01
2018-08-13T11:32:46.421Z,66.22
2018-08-13T11:35:16.036Z,64.62
2018-08-13T11:37:45.244Z,66.97
2018-08-13T11:40:16.723Z,65.70
2018-08-13T11:42:46.813Z,66.10
2018-08-13T11:45:16.009Z,61.75
2018-08-13T11:47:45.165Z,58.84
2018-08-13T11:50:20.329Z,54.09
2018-08-13T11:52:50.585Z,54.17
2018-08-13T11:55:21.120Z,53.82
2018-08-13T11:57:51.209Z,50.76
2018-08-13T12:00:20.349Z,49.59
2018-08-13T12:02:49.481Z,47.47
2018-08-13T12:05:18.589Z,52.92
2018-08-13T12:07:47.760Z,54.48
2018-08-13T12:10:17.358Z,52.27
2018-08-13T12:12:46.514Z,52.15
2018-08-13T12:15:15.765Z,51.68
2018-08-13T12:17:45.204Z,52.81
2018-08-13T12:20:17.188Z,52.85
2018-08-13T12:22:46.686Z,53.04
2018-08-13T12:25:23.655Z,53.67
2018-08-13T12:27:53.250Z,53.38
2018-08-13T12:30:22.395Z,52.97
2018-08-13T12:32:52.114Z,53.41
2018-08-13T12:35:21.303Z,52.10
2018-08-13T12:37:50.785Z,52.20
2018-08-13T12:40:20.041Z,52.35
2018-08-13T12:42:49.777Z,53.94
2018-08-13T12:45:19.385Z,54.36
2018-08-13T12:47:49.154Z,55.15
2018-08-13T12:50:20.249Z,55.50
2018-08-13T12:52:50.578Z,55.33
2018-08-13T12:55:19.745Z,54.74
2018-08-13T12:57:48.923Z,55.69
2018-08-13T13:00:19.114Z,56.83
2018-08-13T13:02:48.255Z,56.06
2018-08-13T13:05:18.117Z,55.52
2018-08-13T13:07:47.256Z,55.90
2018-08-13T13:10:17.434Z,56.03
2018-08-13T13:12:46.721Z,53.99
2018-08-13T13:15:17.929Z,52.81
2018-08-13T13:17:47.830Z,50.37
2018-08-13T13:20:19.269Z,46.60
2018-08-13T13:22:48.756Z,43.40
2018-08-13T13:25:19.017Z,40.71
2018-08-13T13:27:48.137Z,42.03
2018-08-13T13:30:17.734Z,44.61
2018-08-13T13:32:47.430Z,45.49
2018-08-13T13:35:17.745Z,45.76
2018-08-13T13:37:52.109Z,40.98
2018-08-13T13:40:21.768Z,40.82
2018-08-13T13:42:50.859Z,38.14
2018-08-13T13:45:20.150Z,36.37
2018-08-13T13:47:49.289Z,41.64
2018-08-13T13:50:19.423Z,44.70
2018-08-13T13:52:48.561Z,41.80
2018-08-13T13:55:17.962Z,40.80
2018-08-13T13:57:46.797Z,38.15
2018-08-13T14:00:18.551Z,39.68
2018-08-13T14:02:49.185Z,41.39
2018-08-13T14:05:18.438Z,40.63
2018-08-13T14:07:47.685Z,40.49
2018-08-13T14:10:19.406Z,45.70
2018-08-13T14:12:48.553Z,46.62
2018-08-13T14:15:20.921Z,43.71
2018-08-13T14:17:50.717Z,43.70
2018-08-13T14:20:20.101Z,46.37
2018-08-13T14:22:49.249Z,46.63
2018-08-13T14:25:18.366Z,46.14
2018-08-13T14:27:47.979Z,42.04
2018-08-13T14:30:21.386Z,38.87
2018-08-13T14:32:51.310Z,38.10
2018-08-13T14:35:21.658Z,41.17
2018-08-13T14:37:51.181Z,44.60
2018-08-13T14:40:20.997Z,43.27
2018-08-13T14:42:50.126Z,42.98
2018-08-13T14:45:19.850Z,43.65
2018-08-13T14:47:50.452Z,41.46
2018-08-13T14:50:19.619Z,35.08
2018-08-13T14:52:49.509Z,34.27
2018-08-13T14:55:22.233Z,39.51
2018-08-13T14:57:51.398Z,43.07
2018-08-13T15:00:25.602Z,40.98
2018-08-13T15:02:56.191Z,40.27
2018-08-13T15:05:25.395Z,44.43
2018-08-13T15:07:54.514Z,46.30
2018-08-13T15:10:25.022Z,52.44
2018-08-13T15:12:54.357Z,54.25
2018-08-13T15:15:23.495Z,53.39
2018-08-13T15:17:52.878Z,54.87
2018-08-13T15:20:24.773Z,54.36
2018-08-13T15:22:54.136Z,55.13
2018-08-13T15:25:23.321Z,58.76
2018-08-13T15:27:52.580Z,61.09
2018-08-13T15:30:22.602Z,64.72
2018-08-13T15:32:53.757Z,66.56
2018-08-13T15:35:22.899Z,68.32
2018-08-13T15:37:52.284Z,68.08
2018-08-13T15:40:21.125Z,67.10
2018-08-13T15:42:49.938Z,66.52
2018-08-13T15:45:21.821Z,66.60
2018-08-13T15:47:51.251Z,65.97
2018-08-13T15:50:21.520Z,66.15
2018-08-13T15:52:51.047Z,65.36
2018-08-13T15:55:20.666Z,66.10
2018-08-13T15:57:49.828Z,66.97
2018-08-13T16:00:26.997Z,68.91
2018-08-13T16:02:56.409Z,70.72
2018-08-13T16:05:25.550Z,69.57
2018-08-13T16:07:54.793Z,70.77
2018-08-13T16:10:23.862Z,70.28
2018-08-13T16:12:55.284Z,69.81
2018-08-13T16:15:25.368Z,70.10
2018-08-13T16:17:54.946Z,70.39
2018-08-13T16:20:24.757Z,72.03
2018-08-13T16:22:54.034Z,74.96
2018-08-13T16:25:23.262Z,76.97
2018-08-13T16:27:52.953Z,78.93
2018-08-13T16:30:26.942Z,79.73
2018-08-13T16:32:56.238Z,83.08
2018-08-13T16:35:25.790Z,86.11
2018-08-13T16:37:55.285Z,89.53
2018-08-13T16:40:25.205Z,92.91
2018-08-13T16:42:54.937Z,93.61
2018-08-13T16:45:24.877Z,95.87
2018-08-13T16:47:56.511Z,93.05
2018-08-13T16:50:30.585Z,93.03
2018-08-13T16:53:00.882Z,90.97
2018-08-13T16:55:31.825Z,91.83
2018-08-13T16:58:00.469Z,92.36
2018-08-13T17:00:31.023Z,93.18
2018-08-13T17:02:59.269Z,92.48
2018-08-13T17:05:31.350Z,90.22
2018-08-13T17:08:00.648Z,87.42
2018-08-13T17:10:31.001Z,89.44
2018-08-13T17:12:59.889Z,84.77
2018-08-13T17:15:31.665Z,83.53
2018-08-13T17:18:02.266Z,82.70
2018-08-13T17:20:34.142Z,78.69
2018-08-13T17:23:03.317Z,75.66
2018-08-13T17:25:32.417Z,74.34
2018-08-13T17:28:01.700Z,75.43
2018-08-13T17:30:31.445Z,74.61
2018-08-13T17:33:02.073Z,76.77
2018-08-13T17:35:34.367Z,76.99
2018-08-13T17:38:06.069Z,77.01
2018-08-13T17:40:35.290Z,78.98
2018-08-13T17:43:05.520Z,80.41
2018-08-13T17:45:34.496Z,81.92
2018-08-13T17:48:03.665Z,79.30
2018-08-13T17:50:32.824Z,79.61
2018-08-13T17:53:02.439Z,80.02
2018-08-13T17:55:32.337Z,79.97
2018-08-13T17:58:02.998Z,82.00
2018-08-13T18:00:32.254Z,81.05
2018-08-13T18:03:02.068Z,82.22
2018-08-13T18:05:32.003Z,82.50
2018-08-13T18:08:02.870Z,82.93
2018-08-13T18:10:33.401Z,83.90
2018-08-13T18:13:04.585Z,83.46
2018-08-13T18:15:34.221Z,84.86
2018-08-13T18:18:03.750Z,85.67
2018-08-13T18:20:33.079Z,85.09
2018-08-13T18:23:02.202Z,86.05
2018-08-13T18:25:31.367Z,85.71
2018-08-13T18:28:01.160Z,85.79
2018-08-13T18:30:30.402Z,86.16
2018-08-13T18:33:00.522Z,86.66
2018-08-13T18:35:29.689Z,87.42
2018-08-13T18:38:00.495Z,87.13
2018-08-13T18:40:32.090Z,86.98
2018-08-13T18:43:01.518Z,88.33
2018-08-13T18:45:30.917Z,87.93
2018-08-13T18:48:00.817Z,87.95
2018-08-13T18:50:30.027Z,88.16
2018-08-13T18:52:59.269Z,88.74
2018-08-13T18:55:28.254Z,89.56
2018-08-13T18:57:57.094Z,88.46
2018-08-13T19:00:28.500Z,89.21
2018-08-13T19:02:59.505Z,89.41
2018-08-13T19:05:28.822Z,90.15
2018-08-13T19:07:58.380Z,90.15
2018-08-13T19:10:28.018Z,90.71
2018-08-13T19:12:57.129Z,92.18
2018-08-13T19:15:27.463Z,93.47
2018-08-13T19:17:56.653Z,93.80
2018-08-13T19:20:26.174Z,94.56
2018-08-13T19:22:55.405Z,94.89
2018-08-13T19:25:27.556Z,93.96
2018-08-13T19:27:57.517Z,94.58
2018-08-13T19:30:27.604Z,94.96
2018-08-13T19:32:56.753Z,94.98
2018-08-13T19:35:26.005Z,92.58
2018-08-13T19:37:55.149Z,92.37
2018-08-13T19:40:25.619Z,92.02
2018-08-13T19:42:54.757Z,91.26
2018-08-13T19:45:24.687Z,91.98
2018-08-13T19:47:54.725Z,91.80
2018-08-13T19:50:23.708Z,92.36
2018-08-13T19:52:53.325Z,93.18
2018-08-13T19:55:23.161Z,94.46
2018-08-13T19:57:52.350Z,95.14
2018-08-13T20:00:27.103Z,96.85
2018-08-13T20:02:56.682Z,96.79
2018-08-13T20:05:26.902Z,95.54
2018-08-13T20:07:56.193Z,95.60
2018-08-13T20:10:25.321Z,95.59
2018-08-13T20:12:54.451Z,95.26
2018-08-13T20:15:25.031Z,94.90
2018-08-13T20:17:54.158Z,95.34
2018-08-13T20:20:25.679Z,95.05
2018-08-13T20:22:54.793Z,94.68
2018-08-13T20:25:23.915Z,94.35
2018-08-13T20:27:53.853Z,94.32
2018-08-13T20:30:23.546Z,94.38
2018-08-13T20:32:53.828Z,94.83
2018-08-13T20:35:23.169Z,94.53
2018-08-13T20:37:52.437Z,95.82
2018-08-13T20:40:22.237Z,95.53
2018-08-13T20:42:51.651Z,95.13
2018-08-13T20:45:21.988Z,95.34
2018-08-13T20:47:51.437Z,94.75
2018-08-13T20:50:22.881Z,94.80
2018-08-13T20:52:53.626Z,95.16
2018-08-13T20:55:27.438Z,95.59
2018-08-13T20:57:56.634Z,95.38
2018-08-13T21:00:27.365Z,94.50
2018-08-13T21:02:56.508Z,94.85
2018-08-13T21:05:25.638Z,94.60
2018-08-13T21:07:54.862Z,94.62
2018-08-13T21:10:25.304Z,94.31
2018-08-13T21:12:54.743Z,94.65
2018-08-13T21:15:24.656Z,93.97
2018-08-13T21:17:54.570Z,92.72
2018-08-13T21:20:26.926Z,91.28
2018-08-13T21:22:56.489Z,90.61
2018-08-13T21:25:25.635Z,90.35
2018-08-13T21:27:55.070Z,90.15
2018-08-13T21:30:24.163Z,90.51
2018-08-13T21:32:53.539Z,89.78
2018-08-13T21:35:25.175Z,90.29
2018-08-13T21:37:54.712Z,93.08
2018-08-13T21:40:23.832Z,93.74
2018-08-13T21:42:52.998Z,93.57
2018-08-13T21:45:22.209Z,93.52
2018-08-13T21:47:51.037Z,94.90
2018-08-13T21:50:22.641Z,97.42
2018-08-13T21:52:54.240Z,98.48
2018-08-13T21:55:25.041Z,97.78
2018-08-13T21:57:54.345Z,97.84
2018-08-13T22:00:31.165Z,97.29
2018-08-13T22:03:02.422Z,98.91
2018-08-13T22:05:31.593Z,99.59
2018-08-13T22:08:00.883Z,99.79
2018-08-13T22:10:30.138Z,98.54
2018-08-13T22:12:59.470Z,97.56
2018-08-13T22:15:32.221Z,96.44
2018-08-13T22:18:02.969Z,95.69
2018-08-13T22:20:33.922Z,94.48
2018-08-13T22:23:04.329Z,93.81
2018-08-13T22:25:42.839Z,93.93
2018-08-13T22:28:15.029Z,94.10
2018-08-13T22:30:44.198Z,94.62
2018-08-13T22:33:13.445Z,94.49
2018-08-13T22:35:42.961Z,95.09
2018-08-13T22:38:12.086Z,95.47
2018-08-13T22:40:41.818Z,95.95
2018-08-13T22:43:10.998Z,96.42
2018-08-13T22:45:40.112Z,96.16
2018-08-13T22:48:09.447Z,96.75
2018-08-13T22:50:39.002Z,98.19
2018-08-13T22:53:08.541Z,98.18
2018-08-13T22:55:37.644Z,98.31
2018-08-13T22:58:06.775Z,97.97
2018-08-13T23:00:36.098Z,97.43
2018-08-13T23:03:06.526Z,97.64
2018-08-13T23:05:38.107Z,97.43
2018-08-13T23:08:07.737Z,97.05
2018-08-13T23:10:36.945Z,96.58
2018-08-13T23:13:10.986Z,96.45
2018-08-13T23:15:40.137Z,95.48
2018-08-13T23:18:09.288Z,95.96
2018-08-13T23:20:39.110Z,95.35
2018-08-13T23:23:08.291Z,95.51
2018-08-13T23:25:37.820Z,95.51
2018-08-13T23:28:09.861Z,95.72
2018-08-13T23:30:39.054Z,95.91
2018-08-13T23:33:08.755Z,95.97
2018-08-13T23:35:37.913Z,95.04
2018-08-13T23:38:07.053Z,94.52
2018-08-13T23:40:36.158Z,94.17
2018-08-13T23:43:05.306Z,94.22
2018-08-13T23:45:35.002Z,95.12
2018-08-13T23:48:04.165Z,95.35
2018-08-13T23:50:33.269Z,94.53
2018-08-13T23:53:02.406Z,94.64
2018-08-13T23:55:38.730Z,95.26
2018-08-13T23:58:11.449Z,96.85
